createdAt,value
2019-03-20T00:03:50.351Z,18.40
2019-03-20T00:06:19.072Z,12.13
2019-03-20T00:09:08.531Z,12.78
2019-03-20T00:11:56.635Z,15.73
2019-03-20T00:14:44.781Z,9.60
2019-03-20T00:17:32.660Z,11.57
2019-03-20T00:20:20.494Z,13.87
2019-03-20T00:23:08.364Z,13.30
2019-03-20T00:26:15.650Z,13.30
2019-03-20T00:28:55.996Z,7.70
2019-03-20T00:31:37.351Z,9.73
2019-03-20T00:34:19.278Z,10.97
2019-03-20T00:37:01.337Z,10.53
2019-03-20T00:45:45.885Z,9.97
2019-03-20T00:48:27.097Z,7.70
2019-03-20T00:51:08.452Z,12.63
2019-03-20T00:53:37.838Z,10.20
2019-03-20T00:56:25.937Z,12.40
2019-03-20T00:59:27.765Z,10.50
2019-03-20T01:02:03.441Z,8.70
2019-03-20T01:04:51.295Z,10.37
2019-03-20T01:10:32.819Z,6.87
2019-03-20T01:13:20.893Z,10.33
2019-03-20T01:16:09.003Z,7.40
2019-03-20T01:18:56.821Z,8.40
2019-03-20T01:21:44.915Z,10.48
2019-03-20T01:27:21.982Z,9.87
2019-03-20T01:29:50.542Z,12.73
2019-03-20T01:35:23.289Z,7.50
2019-03-20T01:38:02.182Z,8.33
2019-03-20T01:40:49.988Z,9.25
2019-03-20T01:43:38.086Z,11.90
2019-03-20T01:46:25.892Z,9.63
2019-03-20T01:49:13.994Z,9.47
2019-03-20T01:52:01.779Z,14.03
2019-03-20T01:54:49.601Z,11.50
2019-03-20T01:57:37.375Z,8.98
2019-03-20T02:00:25.301Z,13.22
2019-03-20T02:03:13.177Z,8.50
2019-03-20T02:06:01.103Z,13.63
2019-03-20T02:08:48.971Z,15.07
2019-03-20T02:11:36.818Z,11.73
2019-03-20T02:14:25.473Z,14.87
2019-03-20T02:17:13.396Z,10.40
2019-03-20T02:20:02.186Z,11.03
2019-03-20T02:22:50.494Z,11.60
2019-03-20T02:25:19.011Z,15.80
2019-03-20T02:28:06.933Z,19.80
2019-03-20T02:30:46.012Z,16.80
2019-03-20T02:33:33.861Z,13.33
2019-03-20T02:36:21.732Z,10.67
2019-03-20T02:39:09.570Z,11.97
2019-03-20T02:41:57.362Z,10.37
2019-03-20T02:44:25.860Z,15.53
2019-03-20T02:47:33.081Z,11.23
2019-03-20T02:50:21.024Z,12.67
2019-03-20T02:53:08.846Z,12.30
2019-03-20T02:55:56.776Z,11.43
2019-03-20T02:58:44.637Z,11.17
2019-03-20T03:01:32.475Z,10.85
2019-03-20T03:04:20.358Z,11.55
2019-03-20T03:07:28.399Z,10.80
2019-03-20T03:16:16.486Z,10.30
2019-03-20T03:19:04.327Z,10.87
2019-03-20T03:21:52.148Z,12.67
2019-03-20T03:24:40.041Z,9.30
2019-03-20T03:30:22.747Z,9.53
2019-03-20T03:33:03.689Z,9.63
2019-03-20T03:35:44.606Z,7.78
2019-03-20T03:38:25.146Z,12.87
2019-03-20T03:41:07.382Z,17.43
2019-03-20T03:43:48.992Z,12.30
2019-03-20T03:46:30.731Z,8.93
2019-03-20T03:49:12.174Z,12.13
2019-03-20T03:51:54.292Z,13.27
2019-03-20T03:54:36.139Z,15.27
2019-03-20T03:57:16.718Z,11.33
2019-03-20T03:59:58.143Z,15.00
2019-03-20T04:02:40.695Z,14.80
2019-03-20T04:05:21.278Z,17.80
2019-03-20T04:08:02.261Z,13.63
2019-03-20T04:10:43.086Z,21.63
2019-03-20T04:13:25.794Z,16.97
2019-03-20T04:16:06.408Z,16.83
2019-03-20T04:18:34.983Z,14.73
2019-03-20T04:21:43.621Z,18.37
2019-03-20T04:24:31.519Z,20.95
2019-03-20T04:27:19.440Z,16.50
2019-03-20T04:30:27.981Z,11.93
2019-03-20T04:36:22.819Z,17.40
2019-03-20T04:39:10.657Z,24.30
2019-03-20T04:41:58.552Z,16.33
2019-03-20T04:44:27.049Z,18.67
2019-03-20T04:47:15.202Z,17.45
2019-03-20T04:50:03.797Z,21.80
2019-03-20T04:52:51.699Z,18.27
2019-03-20T04:55:20.974Z,18.85
2019-03-20T04:58:08.830Z,20.27
2019-03-20T05:00:37.332Z,18.60
2019-03-20T05:03:19.184Z,16.47
2019-03-20T05:06:07.048Z,22.58
2019-03-20T05:08:35.532Z,18.50
2019-03-20T05:11:04.016Z,19.37
2019-03-20T05:13:51.864Z,23.42
2019-03-20T05:16:23.391Z,17.07
2019-03-20T05:19:11.239Z,14.60
2019-03-20T05:22:18.414Z,16.63
2019-03-20T05:24:46.941Z,21.35
2019-03-20T05:27:34.756Z,18.15
2019-03-20T05:30:03.411Z,23.20
2019-03-20T05:32:51.205Z,16.40
2019-03-20T05:35:19.695Z,12.77
2019-03-20T05:37:48.251Z,12.33
2019-03-20T05:40:36.073Z,14.90
2019-03-20T05:43:04.750Z,11.57
2019-03-20T05:45:52.545Z,16.47
2019-03-20T05:48:40.368Z,16.37
2019-03-20T05:51:09.136Z,19.13
2019-03-20T05:53:37.606Z,16.90
2019-03-20T05:56:06.073Z,17.20
2019-03-20T05:58:53.892Z,13.77
2019-03-20T06:01:34.396Z,11.80
2019-03-20T06:04:02.859Z,14.60
2019-03-20T06:06:50.693Z,14.07
2019-03-20T06:09:19.138Z,15.67
2019-03-20T06:12:06.975Z,13.80
2019-03-20T06:14:35.467Z,13.83
2019-03-20T06:21:08.722Z,19.13
2019-03-20T06:23:56.571Z,17.47
2019-03-20T06:26:44.423Z,14.57
2019-03-20T06:29:12.881Z,24.12
2019-03-20T06:31:41.343Z,19.30
2019-03-20T06:34:09.942Z,19.60
2019-03-20T06:36:38.487Z,18.60
2019-03-20T06:39:07.637Z,17.67
2019-03-20T06:41:36.192Z,15.20
2019-03-20T06:44:04.728Z,10.60
2019-03-20T06:46:33.210Z,9.75
2019-03-20T06:49:01.654Z,8.35
2019-03-20T06:51:30.410Z,13.32
2019-03-20T06:53:59.136Z,22.60
2019-03-20T06:56:27.652Z,38.47
2019-03-20T06:59:08.463Z,50.65
2019-03-20T07:01:36.776Z,25.20
2019-03-20T07:04:14.203Z,9.07
2019-03-20T07:06:54.781Z,11.50
2019-03-20T07:09:32.168Z,21.93
2019-03-20T07:12:00.662Z,12.87
2019-03-20T07:14:29.115Z,10.90
2019-03-20T07:16:58.045Z,15.03
2019-03-20T07:19:26.501Z,14.57
2019-03-20T07:21:54.959Z,11.20
2019-03-20T07:24:42.817Z,17.00
2019-03-20T07:27:11.348Z,15.80
2019-03-20T07:29:52.523Z,15.73
2019-03-20T07:32:21.017Z,16.73
2019-03-20T07:34:49.563Z,10.60
2019-03-20T07:37:18.138Z,17.90
2019-03-20T07:40:26.703Z,11.50
2019-03-20T07:43:14.582Z,15.30
2019-03-20T07:46:02.474Z,13.73
2019-03-20T07:48:50.306Z,13.87
2019-03-20T07:51:38.092Z,18.23
2019-03-20T07:57:18.996Z,15.60
2019-03-20T08:00:27.585Z,9.03
2019-03-20T08:03:15.546Z,14.33
2019-03-20T08:06:03.433Z,17.10
2019-03-20T08:08:50.944Z,12.50
2019-03-20T08:11:38.800Z,14.80
2019-03-20T08:17:19.952Z,12.13
2019-03-20T08:20:28.464Z,10.30
2019-03-20T08:23:16.690Z,8.93
2019-03-20T08:26:04.585Z,13.63
2019-03-20T08:28:52.413Z,15.97
2019-03-20T08:31:32.795Z,14.07
2019-03-20T08:34:13.261Z,13.50
2019-03-20T08:40:13.417Z,9.90
2019-03-20T08:43:13.777Z,13.13
2019-03-20T08:45:54.276Z,12.45
2019-03-20T08:54:29.040Z,9.43
2019-03-20T08:57:09.697Z,9.33
2019-03-20T08:59:50.274Z,8.87
2019-03-20T09:02:30.636Z,9.27
2019-03-20T09:05:11.332Z,8.43
2019-03-20T09:07:52.159Z,6.73
2019-03-20T09:10:32.572Z,7.40
2019-03-20T09:13:12.870Z,7.47
2019-03-20T09:22:04.387Z,12.23
2019-03-20T09:24:44.951Z,6.13
2019-03-20T09:27:25.773Z,11.43
2019-03-20T09:30:06.975Z,8.50
2019-03-20T09:32:47.322Z,10.20
2019-03-20T09:35:27.998Z,7.20
2019-03-20T09:38:08.781Z,5.57
2019-03-20T09:40:49.464Z,7.23
2019-03-20T09:43:30.275Z,13.83
2019-03-20T09:46:11.308Z,9.98
2019-03-20T09:48:52.233Z,9.45
2019-03-20T09:51:33.364Z,11.13
2019-03-20T09:54:13.995Z,9.83
2019-03-20T09:56:55.410Z,13.90
2019-03-20T09:59:36.142Z,7.60
2019-03-20T10:02:17.230Z,11.23
2019-03-20T10:04:58.145Z,13.10
2019-03-20T10:07:38.338Z,11.93
2019-03-20T10:10:38.300Z,10.67
2019-03-20T10:13:19.000Z,10.23
2019-03-20T10:19:07.947Z,6.00
2019-03-20T10:21:48.890Z,3.50
2019-03-20T10:27:11.288Z,6.33
2019-03-20T10:29:51.543Z,6.13
2019-03-20T10:32:32.453Z,7.08
2019-03-20T10:35:13.807Z,2.75
2019-03-20T10:37:54.537Z,7.07
2019-03-20T10:40:54.023Z,5.07
2019-03-20T10:43:32.936Z,3.90
2019-03-20T10:46:20.763Z,6.27
2019-03-20T10:49:08.590Z,12.60
2019-03-20T10:51:56.444Z,5.27
2019-03-20T10:54:44.271Z,3.80
2019-03-20T10:57:32.056Z,6.37
2019-03-20T11:00:40.783Z,6.30
2019-03-20T11:03:28.923Z,8.30
2019-03-20T11:09:18.299Z,7.03
2019-03-20T11:11:40.360Z,5.13
2019-03-20T11:14:28.198Z,7.17
2019-03-20T11:17:16.000Z,5.87
2019-03-20T11:20:24.609Z,6.67
2019-03-20T11:23:12.409Z,3.58
2019-03-20T11:26:00.252Z,5.20
2019-03-20T11:28:48.126Z,4.00
2019-03-20T11:34:22.628Z,5.30
2019-03-20T11:37:03.266Z,2.40
2019-03-20T11:39:44.293Z,4.60
2019-03-20T11:42:23.131Z,4.17
2019-03-20T11:45:11.090Z,5.60
2019-03-20T11:47:58.959Z,4.40
2019-03-20T11:50:46.777Z,8.53
2019-03-20T11:53:34.600Z,5.97
2019-03-20T11:56:22.411Z,4.63
2019-03-20T11:59:10.306Z,5.70
2019-03-20T12:01:58.130Z,5.50
2019-03-20T12:07:39.948Z,6.95
2019-03-20T12:10:29.306Z,3.83
2019-03-20T12:13:17.190Z,2.90
2019-03-20T12:16:05.102Z,2.57
2019-03-20T12:22:30.034Z,9.43
2019-03-20T12:25:10.956Z,7.70
2019-03-20T12:27:51.657Z,4.50
2019-03-20T12:30:32.154Z,6.17
2019-03-20T12:33:13.314Z,7.40
2019-03-20T12:35:53.575Z,4.40
2019-03-20T12:38:34.695Z,5.57
2019-03-20T12:41:13.529Z,2.13
2019-03-20T12:44:01.322Z,4.00
2019-03-20T12:50:18.876Z,4.93
2019-03-20T12:53:07.425Z,4.50
2019-03-20T12:55:55.328Z,5.43
2019-03-20T12:58:43.238Z,6.63
2019-03-20T13:01:31.057Z,3.70
2019-03-20T13:04:18.902Z,3.00
2019-03-20T13:07:06.755Z,5.60
2019-03-20T13:10:02.996Z,5.73
2019-03-20T13:12:44.132Z,5.47
2019-03-20T13:15:33.496Z,4.90
2019-03-20T13:21:10.282Z,4.72
2019-03-20T13:23:58.074Z,5.53
2019-03-20T13:26:45.895Z,5.37
2019-03-20T13:29:33.701Z,9.70
2019-03-20T13:32:21.516Z,6.30
2019-03-20T13:35:02.182Z,3.30
2019-03-20T13:37:42.874Z,4.13
2019-03-20T13:43:05.384Z,6.23
2019-03-20T13:45:46.571Z,3.97
2019-03-20T13:48:27.626Z,7.30
2019-03-20T13:51:08.658Z,8.27
2019-03-20T13:53:49.675Z,5.43
2019-03-20T13:56:30.037Z,14.10
2019-03-20T13:59:11.210Z,6.77
2019-03-20T14:01:51.859Z,8.83
2019-03-20T14:04:32.222Z,5.13
2019-03-20T14:10:32.313Z,7.43
2019-03-20T14:13:13.400Z,6.70
2019-03-20T14:15:52.203Z,5.77
2019-03-20T14:21:33.129Z,6.03
2019-03-20T14:24:20.922Z,6.30
2019-03-20T14:27:08.762Z,4.17
2019-03-20T14:32:50.111Z,5.03
2019-03-20T14:35:37.953Z,6.22
2019-03-20T14:38:25.740Z,6.70
2019-03-20T14:41:21.180Z,11.13
2019-03-20T14:44:03.198Z,3.55
2019-03-20T14:46:51.053Z,5.37
2019-03-20T14:49:38.911Z,6.57
2019-03-20T14:52:19.332Z,4.03
2019-03-20T14:55:00.521Z,8.03
2019-03-20T14:57:40.826Z,7.93
2019-03-20T15:00:20.537Z,4.30
2019-03-20T15:03:08.134Z,3.60
2019-03-20T15:05:55.912Z,6.40
2019-03-20T15:08:43.732Z,9.53
2019-03-20T15:11:31.584Z,6.23
2019-03-20T15:14:19.457Z,6.60
2019-03-20T15:17:07.297Z,10.13
2019-03-20T15:19:55.192Z,5.80
2019-03-20T15:22:42.673Z,7.90
2019-03-20T15:35:25.086Z,6.03
2019-03-20T15:38:13.000Z,8.90
2019-03-20T15:41:00.867Z,4.33
2019-03-20T15:43:48.692Z,7.12
2019-03-20T15:46:36.531Z,6.12
2019-03-20T15:49:24.328Z,12.53
2019-03-20T15:52:11.733Z,6.00
2019-03-20T15:54:59.547Z,5.33
2019-03-20T16:00:40.833Z,4.08
2019-03-20T16:03:49.332Z,5.17
2019-03-20T16:06:37.149Z,12.40
2019-03-20T16:09:24.944Z,4.90
2019-03-20T16:12:12.752Z,8.40
2019-03-20T16:15:00.580Z,6.43
2019-03-20T16:17:48.428Z,6.40
2019-03-20T16:20:29.054Z,8.73
2019-03-20T16:23:10.008Z,3.87
2019-03-20T16:25:50.947Z,7.20
2019-03-20T16:31:36.541Z,5.00
2019-03-20T16:34:16.960Z,5.00
2019-03-20T16:36:57.240Z,7.90
2019-03-20T16:39:36.059Z,7.83
2019-03-20T16:42:23.888Z,7.80
2019-03-20T16:45:31.025Z,9.20
2019-03-20T16:48:18.817Z,9.27
2019-03-20T16:51:06.633Z,7.13
2019-03-20T16:53:54.467Z,4.87
2019-03-20T16:56:42.315Z,10.70
2019-03-20T16:59:30.096Z,12.10
2019-03-20T17:02:17.919Z,8.40
2019-03-20T17:05:06.178Z,8.00
2019-03-20T17:07:45.069Z,8.87
2019-03-20T17:10:52.209Z,6.47
2019-03-20T17:13:40.016Z,10.25
2019-03-20T17:16:21.140Z,7.10
2019-03-20T17:22:06.675Z,9.27
2019-03-20T17:24:46.894Z,9.53
2019-03-20T17:27:27.744Z,10.72
2019-03-20T17:30:08.050Z,7.93
2019-03-20T17:32:49.283Z,7.17
2019-03-20T17:35:30.222Z,4.97
2019-03-20T17:41:16.722Z,8.63
2019-03-20T17:43:56.882Z,8.30
2019-03-20T17:46:37.901Z,5.10
2019-03-20T17:49:18.816Z,4.35
2019-03-20T17:51:59.468Z,7.37
2019-03-20T17:54:40.172Z,9.13
2019-03-20T17:57:20.796Z,5.80
2019-03-20T18:00:01.358Z,10.43
2019-03-20T18:02:41.791Z,8.30
2019-03-20T18:05:22.193Z,6.87
2019-03-20T18:08:02.965Z,6.23
2019-03-20T18:10:43.823Z,5.60
2019-03-20T18:13:24.707Z,13.20
2019-03-20T18:16:06.254Z,5.50
2019-03-20T18:18:47.259Z,10.25
2019-03-20T18:24:35.533Z,8.80
2019-03-20T18:27:15.976Z,5.77
2019-03-20T18:29:56.302Z,10.80
2019-03-20T18:32:37.282Z,11.87
2019-03-20T18:35:17.902Z,11.80
2019-03-20T18:41:17.454Z,14.97
2019-03-20T18:43:57.730Z,11.90
2019-03-20T18:46:40.153Z,15.60
2019-03-20T18:49:40.451Z,32.30
2019-03-20T18:52:21.037Z,538.67
2019-03-20T18:55:01.574Z,337.72
2019-03-20T18:57:42.024Z,82.97
2019-03-20T19:00:22.809Z,323.00
2019-03-20T19:03:03.653Z,215.07
2019-03-20T19:05:44.190Z,117.70
2019-03-20T19:08:25.218Z,94.97
2019-03-20T19:11:05.677Z,82.77
2019-03-20T19:13:46.885Z,275.75
2019-03-20T19:16:27.490Z,273.70
2019-03-20T19:19:08.413Z,134.72
2019-03-20T19:21:49.496Z,92.00
2019-03-20T19:24:30.502Z,450.43
2019-03-20T19:27:11.576Z,522.73
2019-03-20T19:29:52.465Z,382.57
2019-03-20T19:32:33.324Z,264.97
2019-03-20T19:35:14.027Z,121.03
2019-03-20T19:37:55.180Z,374.45
2019-03-20T19:40:35.468Z,337.33
2019-03-20T19:43:15.943Z,145.43
2019-03-20T19:45:56.550Z,130.25
2019-03-20T19:48:37.368Z,39.60
2019-03-20T19:51:17.972Z,36.87
2019-03-20T19:57:10.751Z,15.50
2019-03-20T19:59:51.585Z,15.77
2019-03-20T20:09:00.064Z,11.40
2019-03-20T20:11:40.987Z,14.93
2019-03-20T20:14:21.630Z,17.60
2019-03-20T20:17:02.577Z,16.93
2019-03-20T20:22:51.650Z,19.48
2019-03-20T20:25:32.730Z,22.10
2019-03-20T20:28:13.463Z,17.30
2019-03-20T20:30:54.534Z,17.95
2019-03-20T20:33:38.029Z,26.53
2019-03-20T20:36:18.597Z,14.47
2019-03-20T20:38:59.472Z,12.90
2019-03-20T20:41:39.906Z,28.10
2019-03-20T20:44:20.260Z,18.17
2019-03-20T20:47:01.378Z,14.20
2019-03-20T20:49:41.831Z,15.50
2019-03-20T20:52:22.564Z,13.80
2019-03-20T20:55:03.275Z,20.97
2019-03-20T20:57:44.403Z,11.47
2019-03-20T21:00:24.931Z,20.10
2019-03-20T21:06:24.731Z,17.00
2019-03-20T21:18:25.293Z,19.23
2019-03-20T21:21:06.225Z,19.00
2019-03-20T21:23:46.746Z,24.80
2019-03-20T21:26:27.091Z,20.10
2019-03-20T21:29:07.706Z,31.57
2019-03-20T21:31:48.154Z,17.47
2019-03-20T21:34:29.175Z,22.83
2019-03-20T21:37:10.138Z,12.13
2019-03-20T21:39:50.815Z,18.60
2019-03-20T21:42:31.446Z,20.60
2019-03-20T21:45:12.104Z,20.48
2019-03-20T21:47:52.891Z,15.90
2019-03-20T21:53:32.895Z,24.20
2019-03-20T21:56:13.822Z,12.87
2019-03-20T21:58:55.092Z,19.80
2019-03-20T22:01:35.716Z,21.57
2019-03-20T22:10:12.891Z,16.43
2019-03-20T22:12:53.959Z,14.20
2019-03-20T22:15:34.607Z,25.23
2019-03-20T22:18:14.897Z,16.62
2019-03-20T22:20:55.500Z,14.80
2019-03-20T22:23:36.251Z,17.80
2019-03-20T22:26:17.050Z,15.60
2019-03-20T22:28:57.713Z,13.10
2019-03-20T22:31:38.750Z,16.10
2019-03-20T22:34:38.720Z,9.07
2019-03-20T22:37:19.442Z,11.43
2019-03-20T22:40:00.537Z,16.73
2019-03-20T22:42:41.452Z,12.73
2019-03-20T22:45:22.224Z,16.90
2019-03-20T22:48:03.013Z,18.50
2019-03-20T22:56:56.888Z,15.50
2019-03-20T22:59:37.999Z,13.73
2019-03-20T23:02:18.834Z,13.10
2019-03-20T23:04:59.683Z,24.27
2019-03-20T23:07:40.598Z,25.50
2019-03-20T23:10:21.294Z,56.33
2019-03-20T23:13:01.867Z,45.73
2019-03-20T23:15:42.173Z,49.87
2019-03-20T23:18:22.848Z,40.57
2019-03-20T23:21:03.600Z,40.85
2019-03-20T23:23:43.863Z,25.20
2019-03-20T23:26:24.725Z,34.17
2019-03-20T23:32:24.742Z,21.33
2019-03-20T23:35:06.087Z,19.30
2019-03-20T23:37:46.960Z,23.77
2019-03-20T23:40:27.816Z,16.83
2019-03-20T23:43:08.367Z,16.57
2019-03-20T23:45:49.562Z,13.83
2019-03-20T23:48:30.674Z,18.67
2019-03-20T23:51:10.958Z,13.45
2019-03-20T23:57:00.034Z,11.50
2019-03-20T23:59:41.080Z,10.50
